Kezdőlap
METAR-TAF:

METAR-TAF

Repülőterek :

Repulse Bay, Nunavut, Kanada

földrajzi szélesség: 66-32N, földrajzi hosszúság: 086-15W, magasság: 24 m

Jelenlegi meteorológiai megfigyelések

A jelentés 3 órával és 10 perccel ezelõtt készült, 21:00 UTC
Nyugat-északnyugati szél 5 kt
Hőmérséklet -32°C
Páratartalom 61%
Légköri nyomás 1008 hPa
Látótávolság: 24.1 km
Derült ég

METAR: CYUT 222100Z 30005KT 15SM SKC M32/M37 A2978 RMK LAST STFD OB/NXT 231500Z SLP091

Idő: 18:10 (00:10 UTC)

Előrejelzés

A jelentés 7 órával és 32 perccel ezelõtt készült, 16:38 UTC
Az előrejelzés 22-én 17 óra UTC és 22-én 21 óra UTC között érvényes
Északnyugati szél 8 kt
Látótávolság: 10 km
Derült ég

TAF: CYUT 221638Z 2217/2221 32008KT P6SM SKC RMK NXT FCST WILL BE ISSUED AT 231645Z

Meteorológiai megfigyelések és előrejelzések több, mint 4000 repülőtéren (METAR és TAF jelentéseket).

A térképen piros és sárga pontok jelzik az elérhető meteorológiai állomásokat.

Mozgassa az egeret a pont fölött, hogy megjelenjen az állomás neve.

Azután kattintson az időjárási megfigyelések és előrejelzések megtekintéséhez.

A térkép megváltoztatása: kattintson a fekete keresztel jelölt zöld gombra ráközelítéshez, a vonallal jelölt zöld gombra távolításhoz, vagy a zöld nyilakra a szomszédos térképek eléréséhez.


METAR-TAF: